Tiempo atmosférico en la estación meteorológica de Calatayud, Zaragoza (600 m.)



Fecha
DESCASC
Temp. máxima en grados centígrados (hora)
DESCASC
Temp. mínima en grados centígrados (hora)
DESCASC
Temp. media en grados centígrados
DESCASC
Racha de viento máxima en m/sg (hora)
DESCASC
Velocidad máxima media en intervalos de 10 minutos(hora)
DESCASC
Precipitaciones diarias en mm
DESCASC
Precipitaciones de 00:00 a 06:00 en mm
DESCASC
Precipitaciones de 06:00 a 12:00 en mm
DESCASC
Precipitaciones de 12:00 a 18:00 en mm
DESCASC
Precipitaciones de 18:00 a 24:00 en mm
DESCASC
18-08-2019 38 (15:30) 17.2 (08:00) 27.6 14.44 (18:30) 7.22 (14:30) 0 0 0 0 0
17-08-2019 38.9 (17:40) 18 (07:00) 28.5 8.61 (19:20) 4.44 (19:20) 0 0 0 0 0
16-08-2019 34.9 (17:30) 15.5 (08:20) 25.2 10 (19:40) 6.67 (18:40) 0 0 0 0 0
15-08-2019 30.7 (17:20) 15.9 (00:00) 23.3 13.33 (19:00) 9.17 (19:40) 0 0 0 0 0
14-08-2019 33.6 (17:20) 10.5 (00:00) 22 10.83 (22:40) 6.94 (19:30) 0 0 0 0 0
13-08-2019 28.3 (17:10) 12.9 (00:00) 20.6 11.67 (20:30) 7.78 (20:30) 0 0 0 0 0
12-08-2019 26.7 (16:50) 14.1 (00:00) 20.4 12.78 (19:30) 7.78 (20:10) 0 0 0 0 0
11-08-2019 30.7 (15:50) 17.4 (00:00) 24.1 11.94 (19:10) 7.5 (18:10) 0 0 0 0 0
10-08-2019 32.9 (16:10) 18.8 (00:00) 25.9 10.83 (18:20) 7.5 (18:50) 0 0 0 0 0
09-08-2019 36.2 (17:00) 19.4 (00:00) 27.8 15.28 (14:30) 8.89 (21:40) 0 0 0 0 0
08-08-2019 36.7 (17:30) 18 (00:00) 27.4 11.11 (20:40) 5.83 (16:50) 0 0 0 0 0
07-08-2019 31.6 (14:10) 21.3 (00:00) 26.4 10.28 (17:50) 6.39 (17:20) 0 0 0 0 0
06-08-2019 38.1 (17:20) 17.9 (00:00) 28 10 (15:30) 5.56 (15:40) 0 0 0 0 0
05-08-2019 37.4 (16:40) 19.7 (00:00) 28.6 10.83 (17:20) 6.94 (17:20) 0 0 0 0 0
04-08-2019 38.6 (18:30) 18.8 (00:00) 28.7 10.28 (16:30) 5.83 (16:20) 0 0 0 0 0
03-08-2019 37.8 (18:40) 17.1 (00:00) 27.4 8.61 (20:30) 5.28 (15:50) 0 0 0 0 0
02-08-2019 32.8 (16:10) 18 (00:00) 25.4 11.11 (20:50) 6.67 (17:20) 0 0 0 0 0
01-08-2019 33.6 (17:40) 19.5 (00:00) 26.5 11.94 (19:50) 7.78 (19:50) 0 0 0 0 0
31-07-2019 29.7 (17:30) 14.4 (00:00) 22.1 12.5 (17:50) 7.78 (16:40) 0 0 0 0 0
30-07-2019 28.3 (15:50) 15.5 (00:00) 21.9 13.06 (21:10) 8.06 (21:10) 0 0 0 0 0
29-07-2019 34.6 (18:00) 13.1 (00:00) 23.8 8.06 (18:00) 5 (20:10) 0 0 0 0 0
28-07-2019 29.6 (18:30) 12 (00:00) 20.8 9.72 (20:30) 6.39 (19:50) 0 0 0 0 0
27-07-2019 27.2 (15:20) 16.8 (00:00) 22 12.5 (16:20) 7.78 (16:30) 0.2 0 0.2 0 0
26-07-2019 31.1 (15:00) 19.3 (00:00) 25.2 11.39 (17:20) 6.94 (12:50) 6.4 0 0 6.4 0
25-07-2019 36.8 (15:00) 20.3 (00:00) 28.5 15 (15:30) 9.44 (15:30) 0.4 0 0 0.2 0.2
24-07-2019 40 (15:20) 19.9 (00:00) 29.9 21.11 (16:40) 6.39 (16:40) 3.8 0 0 3.8 0
23-07-2019 40 (16:20) 18.8 (00:00) 29.4 11.11 (20:00) 6.94 (20:00) 0 0 0 0 0
22-07-2019 40.4 (17:00) 20.1 (00:00) 30.3 12.5 (20:20) 7.5 (20:20) 0 0 0 0 0

Gráficas

Temp. máximas Temp. mínimas Temp. medias Precipitaciones Rachas de viento máximas Velocidades máximas media en intervalos de 10 minutos

Datos horarios

Fecha y hora oficial Temperatura (ºC) Velocidad del viento (km/h) Dirección del viento Racha (km/h) Dirección de racha Precipitación (mm) Presión (hPa) Tendencia (hPa) Humedad (%)
2019-08-20 23:00:00 19.1 12 Nordeste 29 Nordeste 0 954.4 1.5 58
2019-08-20 22:00:00 20 16 Nordeste 28 Nordeste 0 953.9 1 54
2019-08-20 21:00:00 21.8 21 Nordeste 35 Nordeste 0 953.3 0.5 48
2019-08-20 20:00:00 23.4 19 Este 35 Este 0 952.9 -0.3 45
2019-08-20 19:00:00 23.6 22 Nordeste 37 Este 0 952.9 -0.5 45
2019-08-20 18:00:00 24.2 22 Este 34 Este 0 952.8 -1.2 45
2019-08-20 17:00:00 23.9 18 Nordeste 32 Este 0 953.2 -1.1 47
2019-08-20 16:00:00 22.8 21 Nordeste 32 Nordeste 0 953.4 -0.9 50
2019-08-20 15:00:00 21.3 17 Nordeste 28 Nordeste 0 954 0.1 57
2019-08-20 14:00:00 20.8 16 Nordeste 35 Nordeste 0 954.3 1 61
2019-08-20 13:00:00 18.6 14 Nordeste 25 Nordeste 0 954.3 1.8 71
2019-08-20 12:00:00 17.1 14 Nordeste 22 Norte 0 953.9 2.1 79
2019-08-20 11:00:00 16.3 6 Nordeste 17 Nordeste 0 953.3 2.2 85
2019-08-20 10:00:00 15.4 13 Este 24 Nordeste 0.8 952.5 1.8 87
2019-08-20 09:00:00 15.3 12 Nordeste 20 Nordeste 3.4 951.8 1.3 89
2019-08-20 08:00:00 15.5 17 Nordeste 24 Nordeste 1.6 951.1 0.5 87
2019-08-20 07:00:00 15.9 9 Nordeste 19 Nordeste 0 950.7 0.1 87
2019-08-20 06:00:00 15.7 6 Nordeste 29 Nordeste 1.2 950.5 -0.2 88
2019-08-20 05:00:00 15.9 7 Nordeste 21 Nordeste 9 950.6 0.3 88
2019-08-20 04:00:00 17.3 14 Nordeste 28 Nordeste 0 950.6 0.5 73
2019-08-20 03:00:00 18.2 7 Norte 26 Nordeste 0 950.7 0.2 69
2019-08-20 02:00:00 18.5 16 Nordeste 30 Nordeste 0 950.3 0.3 67
2019-08-20 01:00:00 18.7 17 Nordeste 27 Nordeste 0 950.1 0 66
2019-08-20 00:00:00 19.4 15 Nordeste 25 Nordeste 0 950.5 1.4 61
2019-08-19 23:00:00 19.9 15 Nordeste 30 Nordeste 0 950 1.2 58
2019-08-19 22:00:00 20.9 17 Nordeste 30 Nordeste 0 950.1 1.3 53
2019-08-19 21:00:00 21.6 22 Nordeste 32 Nordeste 0 949.1 0.5 48
2019-08-19 20:00:00 22.5 22 Nordeste 40 Nordeste 0 948.8 0 45
2019-08-19 19:00:00 22.9 26 Nordeste 50 Nordeste 0 948.8 -0.3 43
2019-08-19 18:00:00 24.4 27 Nordeste 49 Nordeste 0 948.6 -0.2 38
2019-08-19 17:00:00 25.4 29 Nordeste 48 Nordeste 0 948.8 -0.4 36
2019-08-19 16:00:00 24.8 23 Nordeste 45 Nordeste 0 949.1 0 38
2019-08-19 15:00:00 25.4 29 Nordeste 45 Nordeste 0 948.8 -0.8 37
2019-08-19 14:00:00 24.5 27 Nordeste 45 Nordeste 0 949.2 -0.7 39
2019-08-19 13:00:00 25.8 19 Norte 31 Nordeste 0 949.1 -0.7 38
2019-08-19 12:00:00 24.3 11 Nordeste 25 Nordeste 0 949.6 0.2 43
2019-08-19 11:00:00 21.6 10 Nordeste 16 Norte 0 949.9 0.4 51
2019-08-19 10:00:00 20.6 5 Nordeste 26 Nordeste 0 949.8 0.7 53
2019-08-19 09:00:00 20.1 13 Este 23 Este 0 949.4 0.7 56
2019-08-19 08:00:00 18.3 4 Sudeste 19 Nordeste 0 949.5 0.9 67
2019-08-19 07:00:00 18.2 8 Nordeste 13 Este 0 949.1 0.2 67
2019-08-19 06:00:00 18.5 6 Sudeste 25 Nordeste 0 948.7 -0.1 68
2019-08-19 05:00:00 19 7 Nordeste 15 Este 0 948.6 0.3 66
2019-08-19 04:00:00 19.6 6 Este 15 Nordeste 0 948.9 1.3 66
2019-08-19 03:00:00 20.1 6 Este 16 Nordeste 0 948.8 1.7 64
2019-08-19 02:00:00 20.9 10 Este 27 Nordeste 0 948.3 2.4 60
2019-08-19 01:00:00 21.9 8 Este 22 Nordeste 0 947.6 2.8 59
2019-08-19 00:00:00 23.3 12 Nordeste 33 Nordeste 0 947.1 3.7 54
2019-08-18 23:00:00 26.2 18 Nordeste 25 Nordeste 0 945.9 2.7 44
2019-08-18 22:00:00 29.3 14 Nordeste -- -- 0 944.8 1.5 33
2019-08-18 21:00:00 33.5 13 Oeste 32 Sudoeste 0 943.4 0.2 6
2019-08-18 20:00:00 34.3 14 Sudoeste 38 Sudoeste 0 943.2 0 7
2019-08-18 19:00:00 36.3 17 Sudoeste 52 Sudoeste 0 943.3 -0.1 7
2019-08-18 18:00:00 36 21 Sudoeste 42 Sudoeste 0 943.2 -0.8 9
2019-08-18 17:00:00 36.2 24 Oeste 41 Oeste 0 943.2 -1.4 10
2019-08-18 16:00:00 36.8 23 Sudoeste 47 Sudoeste 0 943.4 -2.1 10
2019-08-18 15:00:00 37 23 Sudoeste 44 Sudoeste 0 944 -2.1 10
2019-08-18 14:00:00 35.3 8 Oeste 19 Oeste 0 944.6 -1.9 14
2019-08-18 13:00:00 33.1 6 Noroeste 17 Oeste 0 945.5 -1 17
2019-08-18 12:00:00 30.4 5 Oeste 10 Sudoeste 0 946.1 0 20
2019-08-18 11:00:00 25.9 4 Sudeste 8 Sur 0 946.5 0.9 24
2019-08-18 10:00:00 21.5 2 Oeste 5 Oeste 0 946.5 1.3 38
2019-08-18 09:00:00 19.2 3 Norte 6 Norte 0 946.1 1 38
2019-08-18 08:00:00 17.2 0 Calma 4 Oeste 0 945.6 0.3 44
2019-08-18 07:00:00 18.1 0 Calma 4 Sur 0 945.2 -0.2 38
2019-08-18 06:00:00 19.2 0 Calma 5 Este 0 945.1 -0.2 34
2019-08-18 05:00:00 20.4 2 Nordeste 7 Sudoeste 0 945.3 -0.1 32
2019-08-18 04:00:00 21 3 Sur 7 Nordeste 0 945.4 0.2 32
2019-08-18 03:00:00 22.7 5 Nordeste 7 Este 0 945.3 0.3 27
2019-08-18 02:00:00 24.2 3 Este 7 Sudoeste 0 945.4 0.6 23
2019-08-18 01:00:00 25.8 4 Norte 6 Norte 0 945.2 0.7 21
2019-08-18 00:00:00 27.8 6 Nordeste 9 Sur 0 945 0.9 18
2019-08-17 23:00:00 30.4 8 Sur 10 Sur 0 944.8 0.7 14
2019-08-17 22:00:00 32.1 7 Sudoeste 20 Oeste 0 944.5 0 13
2019-08-17 21:00:00 34.5 13 Oeste 27 Oeste 0 944.1 -0.8 12
2019-08-17 20:00:00 36.9 16 Oeste 31 Oeste 0 944.1 -1.3 10
2019-08-17 19:00:00 38.1 13 Oeste 27 Oeste 0 944.5 -1.6 10
2019-08-17 18:00:00 38.6 12 Oeste 24 Oeste 0 944.9 -2.2 11
2019-08-17 17:00:00 38.2 13 Oeste 22 Oeste 0 945.4 -2.6 13
2019-08-17 16:00:00 37.3 8 Oeste 18 Noroeste 0 946.1 -2.8 13
2019-08-17 15:00:00 35.8 5 Oeste 15 Noroeste 0 947.1 -2.4 15
2019-08-17 14:00:00 33.8 7 Norte 12 Norte 0 948 -1.8 20
2019-08-17 13:00:00 30.8 5 Noroeste 12 Oeste 0 948.9 -1.1 28
2019-08-17 12:00:00 28.6 4 Sudoeste 9 Oeste 0 949.5 -0.4 37
2019-08-17 11:00:00 25.8 4 Este 8 Nordeste 0 949.8 0.4 43
2019-08-17 10:00:00 23.1 3 Norte 7 Nordeste 0 950 0.9 49
2019-08-17 09:00:00 20.3 0 Calma 7 Sur 0 949.9 1 56
2019-08-17 08:00:00 19 6 Sur 12 Sur 0 949.4 0.5 62
2019-08-17 07:00:00 18.1 6 Sudoeste 13 Sur 0 949.1 0.3 60
2019-08-17 06:00:00 19.4 5 Sur 9 Sur 0 948.9 0.1 53
2019-08-17 05:00:00 20.6 4 Nordeste 6 Norte 0 948.9 0.1 50
2019-08-17 04:00:00 20.9 0 Calma 8 Sudoeste 0 948.8 0.1 48
2019-08-17 03:00:00 21.9 6 Sur 10 Sur 0 948.8 0.1 46
2019-08-17 02:00:00 22.7 6 Sur 9 Sur 0 948.8 0.2 43
2019-08-17 01:00:00 24.8 3 Sudoeste 5 Sur 0 948.7 0.8 37
2019-08-17 00:00:00 26.6 5 Este 12 Este 0 948.7 1.5 32
2019-08-16 23:00:00 27.8 3 Este 12 Nordeste 0 948.6 1.8 29
2019-08-16 22:00:00 29.3 9 Nordeste 20 Nordeste 0 947.9 1.3 26
2019-08-16 21:00:00 31.1 15 Nordeste 29 Nordeste 0 947.2 0.1 23
2019-08-16 20:00:00 32.6 19 Nordeste 36 Nordeste 0 946.8 -1 21
2019-08-16 19:00:00 33.8 22 Nordeste 36 Nordeste 0 946.6 -1.9 20
2019-08-16 18:00:00 34.1 22 Norte 32 Nordeste 0 947.1 -2 21
2019-08-16 17:00:00 34.2 13 Nordeste 26 Nordeste 0 947.8 -2.2 21
2019-08-16 16:00:00 33.5 18 Nordeste 27 Nordeste 0 948.5 -2.4 21
2019-08-16 15:00:00 33.2 13 Norte 22 Norte 0 949.1 -2.5 24
2019-08-16 14:00:00 31 10 Nordeste 17 Nordeste 0 950 -1.8 31
2019-08-16 13:00:00 28.6 6 Nordeste 14 Norte 0 950.9 -1.4 33
2019-08-16 12:00:00 25.7 6 Nordeste 14 Norte 0 951.6 -0.8 32
2019-08-16 11:00:00 22.5 5 Nordeste 9 Nordeste 0 951.8 -0.4 42
2019-08-16 10:00:00 18.7 5 Noroeste 8 Noroeste 0 952.3 0.5 56
2019-08-16 09:00:00 16.7 2 Sudoeste 5 Sur 0 952.4 0.6 62
2019-08-16 08:00:00 15.7 3 Este 6 Nordeste 0 952.2 0.1 65
2019-08-16 07:00:00 16 3 Nordeste 6 Nordeste 0 951.8 -0.5 65
2019-08-16 06:00:00 16.4 3 Sudeste 5 Este 0 951.8 -0.9 62
2019-08-16 05:00:00 16.9 0 Calma 6 Norte 0 952.1 -0.8 62
2019-08-16 04:00:00 17.9 2 Noroeste 6 Norte 0 952.3 -0.8 57
2019-08-16 03:00:00 18.7 4 Nordeste 7 Este 0 952.7 -0.5 55
2019-08-16 02:00:00 19.6 3 Sudeste 6 Sur 0 952.9 -0.2 52
2019-08-16 01:00:00 20.7 3 Sudeste 4 Sudeste 0 953.1 1 48
2019-08-16 00:00:00 21.4 2 Nordeste 14 Nordeste 0 953.2 2 46
2019-08-15 23:00:00 22.2 3 Este 33 Nordeste 0 953.1 2.8 44
2019-08-15 22:00:00 23.1 21 Nordeste 43 Nordeste 0 952.1 2 41
2019-08-15 21:00:00 24.9 24 Nordeste 43 Nordeste 0 951.2 1 36
2019-08-15 20:00:00 27.4 28 Nordeste 47 Nordeste 0 950.3 -0.4 32
2019-08-15 19:00:00 28.4 30 Nordeste 48 Nordeste 0 950.1 -1.2 32
2019-08-15 18:00:00 30 22 Nordeste 32 Nordeste 0 950.2 -1.7 29
2019-08-15 17:00:00 30.2 14 Nordeste 32 Nordeste 0 950.7 -1.6 31
2019-08-15 16:00:00 29.7 18 Nordeste 32 Nordeste 0 951.3 -1.5 33
2019-08-15 15:00:00 29.6 13 Norte 26 Nordeste 0 951.9 -1.4 32
2019-08-15 14:00:00 28 12 Nordeste 26 Nordeste 0 952.3 -1.4 36
2019-08-15 13:00:00 27 10 Norte 20 Noroeste 0 952.8 -1 41
2019-08-15 12:00:00 25.6 9 Norte 17 Norte 0 953.3 -0.5 44
2019-08-15 11:00:00 23 7 Norte 16 Este 0 953.7 0.2 53
2019-08-15 10:00:00 19.4 3 Oeste 8 Sudoeste 0 953.8 1.1 64
2019-08-15 09:00:00 16.8 4 Sudoeste 7 Sudoeste 0 953.8 1.5 68
2019-08-15 08:00:00 15.9 5 Sudoeste 9 Sur 0 953.5 1 71
2019-08-15 07:00:00 17.4 3 Sudeste 9 Sur 0 952.7 0.2 67
2019-08-15 06:00:00 17.5 3 Sur 10 Sur 0 952.3 -0.2 62
2019-08-15 05:00:00 18.4 5 Sudeste 6 Este 0 952.5 -0.2 61
2019-08-15 04:00:00 19.6 2 Sur 8 Nordeste 0 952.5 0 57
2019-08-15 03:00:00 21.1 6 Nordeste 20 Nordeste 0 952.5 0.5 53
2019-08-15 02:00:00 21.9 12 Nordeste 20 Nordeste 0 952.7 1.2 51
2019-08-15 01:00:00 22.9 13 Nordeste 34 Nordeste 0 952.5 1.7 44
2019-08-15 00:00:00 24.1 19 Nordeste 37 Nordeste 0 952 1.9 39
2019-08-14 23:00:00 25.4 20 Nordeste 39 Nordeste 0 951.5 2 35
2019-08-14 22:00:00 27 15 Nordeste 30 Este 0 950.8 1.6 29
2019-08-14 21:00:00 28.8 17 Nordeste 32 Nordeste 0 950.1 0.7 22
2019-08-14 20:00:00 30.3 21 Nordeste 38 Nordeste 0 949.5 -0.4 19
2019-08-14 19:00:00 31.3 22 Nordeste 36 Nordeste 0 949.2 -1.4 17
2019-08-14 18:00:00 32.7 18 Norte 30 Nordeste 0 949.4 -1.8 15
2019-08-14 17:00:00 33.3 8 Oeste 22 Oeste 0 949.9 -2.1 14
2019-08-14 16:00:00 31.6 10 Oeste 24 Oeste 0 950.6 -2.1 15
2019-08-14 15:00:00 30.9 9 Sudoeste 17 Oeste 0 951.2 -2.4 16
2019-08-14 14:00:00 29.3 5 Sur 14 Noroeste 0 952 -1.8 19
2019-08-14 13:00:00 26.8 7 Oeste 12 Oeste 0 952.7 -1.2 23
2019-08-14 12:00:00 23 4 Sudoeste 9 Sur 0 953.6 -0.2 32
2019-08-14 11:00:00 19.5 4 Sudoeste 12 Sur 0 953.8 0.1 43
2019-08-14 10:00:00 15.7 5 Sur 10 Sur 0 953.9 0.4 55
2019-08-14 09:00:00 13.6 2 Sudeste 6 Nordeste 0 953.8 0.5 61
2019-08-14 08:00:00 11 4 Sur 7 Sur 0 953.7 0.2 71
2019-08-14 07:00:00 11.6 3 Sur 4 Sudeste 0 953.5 0 69
2019-08-14 06:00:00 12.4 3 Sudeste 5 Este 0 953.3 -0.4 64
2019-08-14 05:00:00 13 2 Oeste 6 Oeste 0 953.5 -0.2 64
2019-08-14 04:00:00 14.3 2 Oeste 5 Oeste 0 953.5 0.1 60
2019-08-14 03:00:00 15.2 4 Noroeste 7 Este 0 953.7 0.4 56
2019-08-14 02:00:00 16.4 4 Este 13 Sur 0 953.7 0.8 51
2019-08-14 01:00:00 17.5 8 Sur 13 Sur 0 953.4 1.7 47
2019-08-14 00:00:00 18.8 4 Este 14 Nordeste 0 953.3 2.4 45
2019-08-13 23:00:00 20.1 10 Nordeste 36 Nordeste 0 952.9 2.4 41
2019-08-13 22:00:00 21.2 20 Nordeste 36 Nordeste 0 951.7 1.2 37
2019-08-13 21:00:00 23.2 21 Nordeste 42 Nordeste 0 950.9 0.5 31
2019-08-13 20:00:00 24.9 26 Nordeste 41 Nordeste 0 950.5 -0.3 27
2019-08-13 19:00:00 26.7 21 Nordeste 34 Nordeste 0 950.5 -0.9 22
2019-08-13 18:00:00 27.3 16 Nordeste 31 Nordeste 0 950.4 -1.7 21
2019-08-13 17:00:00 28 12 Nordeste 25 Nordeste 0 950.8 -2.1 18
2019-08-13 16:00:00 27.3 6 Noroeste 17 Norte 0 951.4 -2.1 19
2019-08-13 15:00:00 25.6 9 Norte 18 Norte 0 952.1 -1.9 22
2019-08-13 14:00:00 24.1 5 Oeste 13 Oeste 0 952.9 -1.3 26
2019-08-13 13:00:00 21.9 6 Sudoeste 14 Sur 0 953.5 -0.9 30
2019-08-13 12:00:00 19.8 5 Sudoeste 11 Oeste 0 954 -0.4 38
2019-08-13 11:00:00 18 5 Oeste 10 Sur 0 954.2 0 46
2019-08-13 10:00:00 16.4 4 Sudeste 7 Norte 0 954.4 0.7 51
2019-08-13 09:00:00 14.5 5 Nordeste 9 Nordeste 0 954.4 0.5 58
2019-08-13 08:00:00 13.4 3 Nordeste 11 Sur 0 954.2 0.1 63
2019-08-13 07:00:00 13.7 8 Sur 12 Sur 0 953.7 -0.7 60
2019-08-13 06:00:00 13.6 4 Sur 6 Este 0 953.9 -0.4 61
2019-08-13 05:00:00 13.9 3 Norte 13 Sudeste 0 954.1 -0.4 60
2019-08-13 04:00:00 13.4 6 Sur 9 Sur 0 954.4 0.2 62
2019-08-13 03:00:00 14.6 3 Este 6 Sur 0 954.3 0.5 55
2019-08-13 02:00:00 15.4 3 Sudeste 17 Nordeste 0 954.5 1.1 51
2019-08-13 01:00:00 16.2 10 Nordeste 26 Este 0 954.2 1.5 50
2019-08-13 00:00:00 16.7 17 Nordeste 28 Nordeste 0 953.8 1.9 51
2019-08-12 23:00:00 17.5 10 Este 28 Norte 0 953.4 2.2 48
2019-08-12 22:00:00 18.5 19 Nordeste 45 Nordeste 0 952.7 1.8 46
2019-08-12 21:00:00 20.5 21 Nordeste 45 Nordeste 0 951.9 1.1 37
2019-08-12 20:00:00 23 22 Nordeste 46 Nordeste 0 951.2 0.3 28
2019-08-12 19:00:00 24.3 24 Nordeste 38 Nordeste 0 950.9 -0.2 25
2019-08-12 18:00:00 25.1 24 Nordeste 39 Nordeste 0 950.8 -0.5 23
2019-08-12 17:00:00 26.1 19 Nordeste 33 Nordeste 0 950.9 -0.7 23
2019-08-12 16:00:00 26.1 14 Nordeste 28 Nordeste 0 951.1 -0.9 24
2019-08-12 15:00:00 26 11 Nordeste 23 Nordeste 0 951.3 -1 23
2019-08-12 14:00:00 24.3 12 Este 23 Este 0 951.6 -0.8 27
2019-08-12 13:00:00 24.2 4 Este 14 Este 0 952 0 31
2019-08-12 12:00:00 21.9 6 Este 12 Oeste 0 952.3 0.8 40
2019-08-12 11:00:00 19.8 5 Sudoeste 15 Oeste 0 952.4 1.5 48
2019-08-12 10:00:00 17.6 4 Sudoeste 9 Sudoeste 0 952 1.7 56
2019-08-12 09:00:00 15.7 5 Sur 10 Sur 0 951.5 1.5 63
2019-08-12 08:00:00 14.5 4 Sur 9 Sur 0 950.9 1 68
2019-08-12 07:00:00 14.3 3 Sur 7 Oeste 0 950.3 0.4 71
2019-08-12 06:00:00 14.3 6 Sudoeste 12 Sur 0 950 0.1 72
2019-08-12 05:00:00 16.1 4 Sur 12 Sur 0 949.9 -0.1 65
2019-08-12 04:00:00 16.9 6 Sur 11 Sur 0 949.9 0 62
2019-08-12 03:00:00 17.3 8 Sur 11 Sur 0 949.9 0.2 62
2019-08-12 02:00:00 18.3 4 Oeste 15 Nordeste 0 950 1 59
2019-08-12 01:00:00 19.2 11 Nordeste 28 Nordeste 0 949.9 1.7 55
2019-08-12 00:00:00 19.9 18 Nordeste 31 Nordeste 0 949.7 2.3 53
2019-08-11 23:00:00 21 19 Nordeste 33 Nordeste 0 949 2.2 50
2019-08-11 22:00:00 22.4 19 Nordeste 37 Nordeste 0 948.2 2 45
2019-08-11 21:00:00 24.2 21 Nordeste 38 Nordeste 0 947.4 1.6 39
2019-08-11 20:00:00 25.7 21 Nordeste 43 Nordeste 0 946.8 1 35
2019-08-11 19:00:00 27.6 25 Nordeste 41 Nordeste 0 946.2 0 32
2019-08-11 18:00:00 28.7 24 Nordeste 40 Nordeste 0 945.8 -1.1 30
2019-08-11 17:00:00 29.2 22 Nordeste 37 Nordeste 0 945.8 -2.1 28
2019-08-11 16:00:00 30.1 22 Nordeste 34 Nordeste 0 946.2 -2.6 27
2019-08-11 15:00:00 29.4 7 Norte 21 Norte 0 946.9 -2.1 27
2019-08-11 14:00:00 28 8 Norte 24 Norte 0 947.9 -1.2 32
2019-08-11 13:00:00 26.1 9 Norte 19 Norte 0 948.8 -0.1 39
2019-08-11 12:00:00 24.4 8 Nordeste 21 Norte 0 949 -0.4 45
2019-08-11 11:00:00 22.8 9 Norte 19 Nordeste 0 949.1 -0.2 51
2019-08-11 10:00:00 20.7 5 Sur 14 Este 0 948.9 1.2 60
2019-08-11 09:00:00 20.8 4 Nordeste 20 Nordeste 0 949.4 2.1 58
2019-08-11 08:00:00 17.5 9 Oeste 15 Oeste 0 949.3 2 69
2019-08-11 07:00:00 18.8 5 Nordeste 9 Este 0 947.7 0.1 63
2019-08-11 06:00:00 19.6 0 Calma 6 Norte 0 947.3 -0.6 60
2019-08-11 05:00:00 20.3 2 Oeste 5 Oeste 0 947.3 -1.2 58
2019-08-11 04:00:00 20.8 3 Oeste 6 Sudoeste 0 947.6 -1.2 55
2019-08-11 03:00:00 21.6 3 Oeste 11 Sur 0 947.9 -1 51
2019-08-11 02:00:00 22.7 7 Sur 11 Sur 0 948.5 -0.6 46
2019-08-11 01:00:00 23.6 4 Sudeste 13 Este 0 948.8 0.1 43
2019-08-11 00:00:00 25 9 Este 23 Nordeste 0 948.9 0.4 39
2019-08-10 23:00:00 25.8 14 Nordeste 23 Nordeste 0 949.1 1.2 37
2019-08-10 22:00:00 26.4 13 Nordeste 28 Nordeste 0 948.7 0.5 35
2019-08-10 21:00:00 27.6 16 Nordeste 35 Nordeste 0 948.5 0.4 33
2019-08-10 20:00:00 29.4 23 Nordeste 34 Nordeste 0 947.9 -0.7 29
2019-08-10 19:00:00 29.8 25 Nordeste 39 Nordeste 0 948.2 -1 28
2019-08-10 18:00:00 31 22 Nordeste 38 Nordeste 0 948.1 -1.9 26
2019-08-10 17:00:00 31.8 21 Nordeste -- -- 0 948.6 -2.2 25
2019-08-10 16:00:00 32.3 7 Sur 16 Sur 0 949.2 -2.3 24
2019-08-10 15:00:00 31.2 7 Noroeste 20 Noroeste 0 950 -2.1 27
2019-08-10 14:00:00 29.1 5 Oeste 20 Oeste 0 950.8 -1.7 32
2019-08-10 13:00:00 27.7 5 Este 12 Oeste 0 951.5 -1 35
2019-08-10 12:00:00 25.3 5 Oeste 15 Sudoeste 0 952.1 -0.2 43
2019-08-10 11:00:00 22.9 9 Sudoeste 16 Sudoeste 0 952.5 0.3 52
2019-08-10 10:00:00 21.1 8 Oeste 16 Oeste 0 952.5 1 59
2019-08-10 09:00:00 19.5 9 Oeste 14 Sudoeste 0 952.3 1.3 66
2019-08-10 08:00:00 18.8 7 Sudoeste 11 Sudoeste 0 952.2 1.3 67
2019-08-10 07:00:00 19.3 4 Sur 8 Sur 0 951.5 0.8 66
2019-08-10 06:00:00 19.4 3 Sudoeste 11 Oeste 0 951 0.5 64
2019-08-10 05:00:00 19.5 8 Oeste 14 Sudoeste 0 950.9 0.3 64
2019-08-10 04:00:00 20 6 Sudoeste 10 Sudoeste 0 950.7 0.3 61
2019-08-10 03:00:00 20.8 6 Oeste 15 Oeste 0 950.5 0 58
2019-08-10 02:00:00 21.5 8 Sudoeste 12 Sudoeste 0 950.6 0.3 54
2019-08-10 01:00:00 22.3 7 Sudoeste 13 Sudoeste 0 950.4 1.6 49
2019-08-10 00:00:00 23.2 5 Oeste 19 Oeste 0 950.5 3.9 46
2019-08-09 23:00:00 24.3 9 Oeste 45 Oeste 0 950.3 5.1 42
2019-08-09 22:00:00 25.7 24 Oeste 50 Oeste 0 948.8 3.8 52
2019-08-09 21:00:00 31.3 26 Oeste 51 Oeste 0 946.6 1.7 34
2019-08-09 20:00:00 34.1 24 Oeste 46 Oeste 0 945.2 -0.2 25
2019-08-09 19:00:00 35.1 21 Sudoeste 41 Sudoeste 0 945 -1.1 23
2019-08-09 18:00:00 35.5 20 Oeste 41 Oeste 0 944.9 -1.7 22
2019-08-09 17:00:00 36.2 18 Sudoeste 40 Sudoeste 0 945.4 -1.2 21
2019-08-09 16:00:00 35 26 Sudoeste 49 Sudoeste 0 946.1 -0.7 22
2019-08-09 15:00:00 32.8 25 Oeste 55 Oeste 0 946.6 -0.3 25
2019-08-09 14:00:00 33.7 23 Oeste 46 Oeste 0 946.6 -0.3 23
2019-08-09 13:00:00 32.9 22 Sudoeste 42 Sudoeste 0 946.8 -0.3 25
2019-08-09 12:00:00 31.4 19 Oeste 39 Sudoeste 0 946.9 -0.2 28
2019-08-09 11:00:00 29.4 16 Oeste 28 Sudoeste 0 946.9 -0.3 30
2019-08-09 10:00:00 25.7 6 Oeste 10 Oeste 0 947.1 0.3 40
2019-08-09 09:00:00 22.3 4 Nordeste 6 Norte 0 947.1 0.7 48
2019-08-09 08:00:00 19.8 3 Sur 7 Sur 0 947.2 0.8 55
2019-08-09 07:00:00 20.2 3 Norte 5 Norte 0 946.8 0.5 53
2019-08-09 06:00:00 20.9 4 Nordeste 15 Sur 0 946.4 0 51
2019-08-09 05:00:00 21.6 6 Sur 14 Sur 0 946.4 0.2 48
2019-08-09 04:00:00 23.2 3 Sudeste 10 Norte 0 946.3 0.6 43
2019-08-09 03:00:00 25.2 4 Este 15 Sur 0 946.4 1 38
2019-08-09 02:00:00 26.6 13 Sur 18 Sur 0 946.2 1.2 32
2019-08-09 01:00:00 26.7 10 Sur 18 Sur 0 945.7 1.1 33
2019-08-09 00:00:00 27.1 12 Sur 19 Sur 0 945.4 1.4 33
2019-08-08 23:00:00 30 12 Sur 18 Sudoeste 0 945 1.2 27
2019-08-08 22:00:00 31.1 12 Sudoeste 32 Sudoeste 0 944.6 0.5 27
2019-08-08 21:00:00 33.3 17 Sudoeste 40 Sudoeste 0 944 -0.3 25
2019-08-08 20:00:00 34.5 15 Sudoeste 34 Sudoeste 0 943.8 -0.6 23
2019-08-08 19:00:00 34.2 18 Oeste 30 Oeste 0 944.1 -1 24
2019-08-08 18:00:00 34.2 12 Sudoeste 29 Sudoeste 0 944.3 -1.6 23
2019-08-08 17:00:00 35.3 17 Oeste -- -- 0 944.4 -2.1 22
2019-08-08 16:00:00 35.3 5 Oeste 21 Oeste 0 945.1 -2.1 21
2019-08-08 15:00:00 32.9 10 Oeste 24 Oeste 0 945.9 -1.8 24
2019-08-08 14:00:00 31.5 6 Oeste 19 Oeste 0 946.5 -1.4 26
2019-08-08 13:00:00 29.6 9 Oeste 21 Oeste 0 947.2 -0.8 30
2019-08-08 12:00:00 27.2 8 Oeste 21 Oeste 0 947.7 -0.4 34
2019-08-08 11:00:00 25 6 Sudoeste 12 Sudoeste 0 947.9 -0.1 41
2019-08-08 10:00:00 22.9 4 Noroeste 10 Sur 0 948 0.3 48
2019-08-08 09:00:00 20 0 Calma 5 Nordeste 0 948.1 0.7 55
2019-08-08 08:00:00 18.2 3 Sur 5 Sudeste 0 948 0.7 59
2019-08-08 07:00:00 18.4 4 Norte 6 Nordeste 0 947.7 0.3 58
2019-08-08 06:00:00 19.3 3 Norte 6 Nordeste 0 947.4 0.2 54
2019-08-08 05:00:00 20.1 2 Norte 6 Sur 0 947.3 0.1 52
2019-08-08 04:00:00 21 3 Norte 5 Sur 0 947.4 0.4 49
2019-08-08 03:00:00 21.9 0 Calma 9 Sur 0 947.2 0.7 46
2019-08-08 02:00:00 22.8 5 Sur 10 Sudoeste 0 947.2 0.9 43
2019-08-08 01:00:00 24.2 4 Sudoeste 12 Oeste 0 947 1.4 39
2019-08-08 00:00:00 25.7 7 Noroeste 12 Noroeste 0 946.5 1 34
2019-08-07 23:00:00 26.4 5 Sudoeste 11 Oeste 0 946.3 1.2 33
2019-08-07 22:00:00 26.8 7 Oeste 30 Oeste 0 945.6 0.4 32
2019-08-07 21:00:00 27.7 15 Oeste 26 Oeste 0 945.5 0 31
2019-08-07 20:00:00 28.5 15 Oeste 26 Oeste 0 945.1 -0.2 29
2019-08-07 19:00:00 28.9 14 Oeste 33 Oeste 0 945.2 -0.1 28
2019-08-07 18:00:00 29.3 20 Oeste 37 Oeste 0 945.5 0.1 29
2019-08-07 17:00:00 30.6 15 Sudoeste 31 Sudoeste 0 945.3 -0.1 25
2019-08-07 16:00:00 29.9 11 Oeste 26 Sudoeste 0 945.3 -0.3 29
2019-08-07 15:00:00 29.8 11 Sudoeste 26 Sudoeste 0 945.4 -0.2 27
2019-08-07 14:00:00 31.3 8 Sur 18 Sur 0 945.4 -0.2 26
2019-08-07 13:00:00 29.6 3 Noroeste 12 Sudoeste 0 945.6 0.3 31
2019-08-07 12:00:00 28.3 4 Noroeste 11 Oeste 0 945.6 0.6 36
2019-08-07 11:00:00 26.7 3 Oeste 9 Sudoeste 0 945.6 1 41
2019-08-07 10:00:00 24.7 4 Sudoeste 8 Sur 0 945.3 1.6 48
2019-08-07 09:00:00 22.9 4 Norte 9 Este 0 945 1.8 57
2019-08-07 08:00:00 21.4 3 Noroeste 7 Nordeste 0 944.6 1 61
2019-08-07 07:00:00 22 3 Noroeste 8 Sur 0 943.7 0.4 56
2019-08-07 06:00:00 22.8 3 Sudeste 10 Este 0 943.2 -0.2 55
2019-08-07 05:00:00 23.1 3 Noroeste 12 Nordeste 0 943.6 0.3 51
2019-08-07 04:00:00 23.5 0 Calma 11 Este 0 943.3 -0.2 44
2019-08-07 03:00:00 24 3 Nordeste 10 Sudoeste 0 943.4 0.1 37
2019-08-07 02:00:00 24.3 4 Sur 15 Este 0 943.3 0.4 33
2019-08-07 01:00:00 24.8 5 Sudeste 14 Oeste 0 943.5 1.1 37
2019-08-07 00:00:00 28 4 Sur 7 Sur 0 943.3 1 29
2019-08-06 23:00:00 29.5 3 Norte 14 Nordeste 0 942.9 0.9 27
2019-08-06 22:00:00 31.1 6 Nordeste 15 Nordeste 0 942.4 0.2 24
2019-08-06 21:00:00 32.8 11 Nordeste 17 Nordeste 0 942.3 -0.1 21
2019-08-06 20:00:00 35.3 11 Norte 20 Noroeste 0 942 -1 17
2019-08-06 19:00:00 36.4 12 Oeste 18 Sudoeste 0 942.2 -1.7 11
2019-08-06 18:00:00 37.4 9 Sur 28 Oeste 0 942.4 -2.2 9
2019-08-06 17:00:00 37.8 10 Oeste 31 Sudoeste 0 943 -2.2 10
2019-08-06 16:00:00 36.8 10 Oeste 36 Oeste 0 943.9 -1.9 11
2019-08-06 15:00:00 36.2 8 Sudoeste 24 Oeste 0 944.6 -2 12
2019-08-06 14:00:00 34.4 13 Oeste 21 Oeste 0 945.2 -1.9 16
2019-08-06 13:00:00 32.1 8 Noroeste 15 Noroeste 0 945.8 -1.3 22
2019-08-06 12:00:00 28.9 4 Oeste 10 Oeste 0 946.6 -0.5 32
2019-08-06 11:00:00 26 4 Oeste 9 Oeste 0 947.1 0.4 42
2019-08-06 10:00:00 23.2 3 Oeste 7 Sudoeste 0 947.1 0.8 53
2019-08-06 09:00:00 20.4 3 Oeste 9 Oeste 0 947.1 0.8 55
2019-08-06 08:00:00 17.9 6 Oeste 10 Oeste 0 946.7 0.3 68
2019-08-06 07:00:00 18.7 4 Sudoeste 9 Sur 0 946.3 -0.1 66
2019-08-06 06:00:00 20.3 3 Sur 9 Sudoeste 0 946.3 0.4 60
2019-08-06 05:00:00 21.7 3 Sudoeste 7 Sudoeste 0 946.4 0.5 54
2019-08-06 04:00:00 22.4 3 Este 12 Sur 0 946.4 0.7 50
2019-08-06 03:00:00 23.7 6 Sur 12 Sur 0 945.9 0.4 46
2019-08-06 02:00:00 24.2 2 Sudoeste 7 Este 0 945.9 0.6 40
2019-08-06 01:00:00 26.4 2 Nordeste 8 Nordeste 0 945.7 1 33
2019-08-06 00:00:00 28.2 2 Sur 7 Este 0 945.5 1.4 29
2019-08-05 23:00:00 30.3 5 Este 10 Sudeste 0 945.3 1.4 24
2019-08-05 22:00:00 31.7 4 Este 20 Este 0 944.7 0.7 21
2019-08-05 21:00:00 34.1 13 Este 24 Este 0 944.1 -0.2 18
2019-08-05 20:00:00 35.6 14 Este 37 Este 0 943.9 -0.7 18
2019-08-05 19:00:00 35.5 18 Nordeste 32 Nordeste 0 944 -1.2 23
2019-08-05 18:00:00 35.7 20 Nordeste 39 Norte 0 944.3 -1.7 22
2019-08-05 17:00:00 36.2 19 Nordeste 32 Nordeste 0 944.6 -2.2 21
2019-08-05 16:00:00 36.8 9 Norte 17 Norte 0 945.2 -2.5 17
2019-08-05 15:00:00 35.1 11 Norte 19 Nordeste 0 946 -2.3 21
2019-08-05 14:00:00 32.7 9 Norte 18 Norte 0 946.8 -1.8 26
2019-08-05 13:00:00 31 6 Norte 13 Nordeste 0 947.7 -1.3 28
2019-08-05 12:00:00 28 6 Nordeste 13 Este 0 948.3 -0.6 40
2019-08-05 11:00:00 25.7 8 Norte 13 Nordeste 0 948.6 -0.3 49
2019-08-05 10:00:00 23.6 8 Nordeste 13 Este 0 949 0.5 57
2019-08-05 09:00:00 21.8 6 Nordeste 13 Nordeste 0 948.9 0.7 63
2019-08-05 08:00:00 20.1 3 Este 6 Este 0 948.9 0.9 67
2019-08-05 07:00:00 20.1 0 Calma 4 Sudeste 0 948.5 0.6 68
2019-08-05 06:00:00 20.9 2 Norte 10 Noroeste 0 948.2 0.6 66
2019-08-05 05:00:00 22 5 Noroeste 14 Noroeste 0 948 0.5 62
2019-08-05 04:00:00 23.8 7 Noroeste 12 Noroeste 0 947.9 0.7 53
2019-08-05 03:00:00 25.1 5 Sudeste 11 Sudeste 0 947.6 0.5 47
2019-08-05 02:00:00 27.1 4 Nordeste 20 Nordeste 0 947.5 0.7 44
2019-08-05 01:00:00 28.5 12 Nordeste 22 Nordeste 0 947.2 1.3 38
2019-08-05 00:00:00 29.4 14 Nordeste 21 Nordeste 0 947.1 1.9 33
2019-08-04 23:00:00 30.2 6 Este 12 Este 0 946.8 2.2 27
2019-08-04 22:00:00 32 4 Oeste 16 Este 0 945.9 1.5 27
2019-08-04 21:00:00 34.3 13 Nordeste 21 Norte 0 945.2 0.7 22
2019-08-04 20:00:00 36.5 6 Nordeste 19 Nordeste 0 944.6 0 18
2019-08-04 19:00:00 37.6 10 Nordeste 27 Oeste 0 944.4 -0.8 16
2019-08-04 18:00:00 38 17 Sudoeste 32 Sudoeste 0 944.5 -1.3 10
2019-08-04 17:00:00 37.9 19 Oeste -- -- 0 944.6 -1.8 11
2019-08-04 16:00:00 37 8 Norte 28 Oeste 0 945.2 -2.1 12
2019-08-04 15:00:00 36.3 13 Oeste 25 Oeste 0 945.8 -2.1 14
2019-08-04 14:00:00 34.6 6 Noroeste 14 Noroeste 0 946.4 -1.9 23
2019-08-04 13:00:00 31.9 5 Oeste 13 Noroeste 0 947.3 -1 29
2019-08-04 12:00:00 29.1 4 Oeste 10 Oeste 0 947.9 -0.3 35
2019-08-04 11:00:00 26.4 3 Noroeste 9 Norte 0 948.3 0.3 47
2019-08-04 10:00:00 23.2 3 Oeste 7 Sudoeste 0 948.3 0.8 56
2019-08-04 09:00:00 20.2 3 Sudoeste 6 Sudoeste 0 948.2 1.1 61
2019-08-04 08:00:00 18.9 5 Sur 12 Sur 0 948 1.2 64
2019-08-04 07:00:00 18.9 6 Sur 10 Sur 0 947.5 0.6 65
2019-08-04 06:00:00 20.5 4 Sudeste 9 Este 0 947.1 0.6 59
2019-08-04 05:00:00 22 5 Sudeste 12 Nordeste 0 946.8 0.7 60
2019-08-04 04:00:00 23.2 3 Sudeste 14 Nordeste 0 946.9 1 53
2019-08-04 03:00:00 23.2 4 Sudeste 11 Nordeste 0 946.5 0.7 48
2019-08-04 02:00:00 23.8 7 Sudeste 14 Sudeste 0 946.1 0.5 46
2019-08-04 01:00:00 25.8 4 Sur 7 Sur 0 945.9 1.1 36
2019-08-04 00:00:00 27.9 0 Calma 14 Este 0 945.8 1.8 29
2019-08-03 23:00:00 29.5 7 Este 12 Nordeste 0 945.6 1.9 27
2019-08-03 22:00:00 31.8 10 Nordeste 17 Nordeste 0 944.8 0.8 23
2019-08-03 21:00:00 33.9 12 Nordeste 31 Nordeste 0 944 -0.2 20
2019-08-03 20:00:00 35 14 Nordeste 25 Nordeste 0 943.7 -1.1 20
2019-08-03 19:00:00 36.2 6 Sudeste 17 Sudeste 0 944 -1.5 18
2019-08-03 18:00:00 36.4 8 Sudeste 22 Este 0 944.2 -1.9 18
2019-08-03 17:00:00 36.1 10 Nordeste 26 Nordeste 0 944.8 -2.1 18
2019-08-03 16:00:00 35 17 Nordeste 29 Este 0 945.5 -2.1 19
2019-08-03 15:00:00 34.7 10 Nordeste 21 Nordeste 0 946.1 -1.9 21
2019-08-03 14:00:00 33.2 8 Norte 18 Norte 0 946.9 -1.5 23
2019-08-03 13:00:00 31.3 10 Nordeste 17 Norte 0 947.6 -1.3 25
2019-08-03 12:00:00 28.7 7 Norte 14 Nordeste 0 948 -1.2 26
2019-08-03 11:00:00 24.7 3 Oeste 8 Sudoeste 0 948.4 -0.6 32
2019-08-03 10:00:00 21.7 2 Noroeste 5 Noroeste 0 948.9 0.2 43
2019-08-03 09:00:00 18.2 2 Sudoeste 6 Oeste 0 949.2 0.7 52
2019-08-03 08:00:00 17.1 2 Oeste 4 Oeste 0 949 0.4 55
2019-08-03 07:00:00 17.3 0 Calma 5 Oeste 0 948.7 0 51
2019-08-03 06:00:00 18.3 2 Este 3 Este 0 948.5 -0.3 46
2019-08-03 05:00:00 19.4 3 Nordeste 4 Nordeste 0 948.6 -0.3 48
2019-08-03 04:00:00 20.4 0 Calma 11 Sur 0 948.7 0 45
2019-08-03 03:00:00 22.6 8 Sur 14 Sudeste 0 948.8 0.3 37
2019-08-03 02:00:00 24 3 Sudeste 18 Este 0 948.9 0.5 26
2019-08-03 01:00:00 26 12 Nordeste 27 Nordeste 0 948.7 1.2 23
2019-08-03 00:00:00 26.2 13 Este 21 Este 0 948.5 1.6 28
2019-08-02 23:00:00 27.4 12 Nordeste 26 Este 0 948.4 1.7 28
2019-08-02 22:00:00 28.6 16 Nordeste 36 Nordeste 0 947.5 0.8 24
2019-08-02 21:00:00 30.2 22 Nordeste 40 Nordeste 0 946.9 0 21
2019-08-02 20:00:00 31.4 22 Nordeste 37 Este 0 946.7 -0.7 21
2019-08-02 19:00:00 32.2 23 Nordeste 36 Nordeste 0 946.7 -1.1 21
2019-08-02 18:00:00 32.5 22 Nordeste 38 Nordeste 0 946.9 -1.4 20
2019-08-02 17:00:00 32.4 22 Nordeste 35 Norte 0 947.4 -1.3 25
2019-08-02 16:00:00 32.2 18 Nordeste 29 Nordeste 0 947.8 -1.4 25
2019-08-02 15:00:00 30.9 15 Nordeste 26 Nordeste 0 948.3 -1.2 31
2019-08-02 14:00:00 30 11 Nordeste 23 Nordeste 0 948.7 -1 35
2019-08-02 13:00:00 28.2 8 Nordeste 18 Nordeste 0 949.2 -0.7 41
2019-08-02 12:00:00 25.8 9 Norte 16 Nordeste 0 949.5 -0.2 50
2019-08-02 11:00:00 23.4 4 Nordeste 11 Norte 0 949.7 0.4 58
2019-08-02 10:00:00 21.9 6 Nordeste 11 Nordeste 0 949.9 0.9 62
2019-08-02 09:00:00 19.6 2 Noroeste 8 Nordeste 0 949.7 0.7 72
2019-08-02 08:00:00 18.4 0 Calma 8 Sudeste 0 949.3 0.4 75
2019-08-02 07:00:00 18.4 4 Sudeste 8 Sudeste 0 949 0.3 76
2019-08-02 06:00:00 19.1 3 Este 9 Sudeste 0 949 0.5 74
2019-08-02 05:00:00 19.5 4 Sudeste 10 Sudeste 0 948.9 0.5 73
2019-08-02 04:00:00 20.3 3 Sudeste 8 Sudeste 0 948.7 0.9 70
2019-08-02 03:00:00 21.3 4 Sudeste 15 Norte 0 948.5 1 66
2019-08-02 02:00:00 22.3 9 Norte 21 Nordeste 0 948.4 1.7 64
2019-08-02 01:00:00 23.4 12 Nordeste 29 Nordeste 0 947.8 2.1 59
2019-08-02 00:00:00 24.2 18 Este 31 Nordeste 0 947.5 2.8 57
2019-08-01 23:00:00 25.8 17 Nordeste 33 Nordeste 0 946.7 2.7 51
2019-08-01 22:00:00 27.4 16 Nordeste 37 Nordeste 0 945.7 2.1 37
2019-08-01 21:00:00 29.4 17 Nordeste 35 Nordeste 0 944.7 1.1 31
2019-08-01 20:00:00 31.1 22 Nordeste 43 Nordeste 0 944 0 31
2019-08-01 19:00:00 31.2 25 Nordeste 37 Nordeste 0 943.6 -1.4 31
2019-08-01 18:00:00 33.4 15 Nordeste 28 Nordeste 0 943.6 -1.9 28
2019-08-01 17:00:00 32.8 11 Nordeste 26 Nordeste 0 944 -2.4 29
2019-08-01 16:00:00 31.7 18 Norte 28 Nordeste 0 945 -1.9 30
2019-08-01 15:00:00 29.9 15 Nordeste 26 Norte 0 945.5 -1.6 36
2019-08-01 14:00:00 28.2 13 Norte 27 Nordeste 0 946.4 -0.7 37
2019-08-01 13:00:00 25.9 19 Nordeste 28 Nordeste 0 946.9 -0.3 48
2019-08-01 12:00:00 25 15 Norte 27 Nordeste 0 947.1 0.1 54
2019-08-01 11:00:00 23.8 16 Norte 32 Nordeste 0 947.1 0.6 60
2019-08-01 10:00:00 22.4 18 Nordeste 27 Nordeste 0 947.2 1 67
2019-08-01 09:00:00 20.8 13 Nordeste 21 Nordeste 0 947 0.9 76
2019-08-01 08:00:00 19.7 13 Nordeste 21 Nordeste 0 946.5 0.1 79
2019-08-01 07:00:00 19.9 10 Nordeste 19 Este 0 946.2 -0.7 77
2019-08-01 06:00:00 20.4 6 Este 19 Nordeste 0 946.1 -0.9 75
2019-08-01 05:00:00 21 14 Nordeste 20 Nordeste 0 946.4 -0.8 73
2019-08-01 04:00:00 21.8 13 Nordeste 18 Nordeste 0 946.9 -0.5 68
2019-08-01 03:00:00 22.6 12 Nordeste 23 Nordeste 0 947 -0.5 65
2019-08-01 02:00:00 23.8 9 Nordeste 15 Este 0 947.2 -0.3 59
2019-08-01 01:00:00 24.5 4 Este 19 Este 0 947.4 0.5 55
2019-08-01 00:00:00 25.4 13 Este 23 Este 0 947.5 1.1 52
2019-07-31 23:00:00 26.5 11 Este 26 Este 0 947.5 1.2 47
2019-07-31 22:00:00 27.4 15 Este 29 Este 0 946.9 0.5 39
2019-07-31 21:00:00 28.8 15 Este 30 Nordeste 0 946.4 -0.4 30
2019-07-31 20:00:00 29.6 20 Nordeste 36 Nordeste 0 946.3 -0.9 25
2019-07-31 19:00:00 29.4 25 Nordeste 41 Nordeste 0 946.4 -1.5 25
2019-07-31 18:00:00 29.4 25 Nordeste 45 Nordeste 0 946.8 -1.9 25
2019-07-31 17:00:00 28.9 27 Nordeste 42 Nordeste 0 947.2 -2.3 25
2019-07-31 16:00:00 28.6 21 Norte 35 Nordeste 0 947.9 -2.3 25
2019-07-31 15:00:00 27.5 19 Norte 34 Norte 0 948.7 -2 26
2019-07-31 14:00:00 25.9 18 Norte 30 Nordeste 0 949.5 -1.4 28
2019-07-31 13:00:00 24.6 13 Norte 26 Norte 0 950.2 -1.3 30
2019-07-31 12:00:00 22.4 17 Norte 29 Nordeste 0 950.7 -1.3 32
2019-07-31 11:00:00 20.3 9 Nordeste 16 Nordeste 0 950.9 -1.2 36
2019-07-31 10:00:00 18.7 3 Este 12 Sur 0 951.5 -0.5 43
2019-07-31 09:00:00 16.6 5 Sudeste 13 Sur 0 952 0.2 52
2019-07-31 08:00:00 14.5 3 Noroeste 12 Sur 0 952.1 0.5 62
2019-07-31 07:00:00 14.8 4 Este 10 Nordeste 0 952 0.3 56
2019-07-31 06:00:00 15.7 5 Nordeste 26 Nordeste 0 951.8 0 52
2019-07-31 05:00:00 16.7 6 Norte 19 Este 0 951.6 -0.5 49
2019-07-31 04:00:00 17.4 14 Este 25 Nordeste 0 951.7 -0.4 47
2019-07-31 03:00:00 16.4 3 Sudoeste 16 Este 0 951.8 0.1 54
2019-07-31 02:00:00 16.8 14 Nordeste 22 Nordeste 0 952.1 0.9 50
2019-07-31 01:00:00 16.8 11 Este 30 Este 0 952.1 1.9 53
2019-07-31 00:00:00 17.3 19 Nordeste 33 Nordeste 0 951.7 2.4 51
2019-07-30 23:00:00 18.4 22 Nordeste 44 Nordeste 0 951.2 2.7 47
2019-07-30 22:00:00 19.9 26 Nordeste 47 Nordeste 0 950.2 2 41
2019-07-30 21:00:00 22.3 28 Nordeste 45 Nordeste 0 949.3 0.9 35
2019-07-30 20:00:00 24.7 23 Nordeste 46 Nordeste 0 948.5 0 30
2019-07-30 19:00:00 26 28 Nordeste 44 Nordeste 0 948.2 -0.8 26
2019-07-30 18:00:00 27.1 23 Nordeste 42 Nordeste 0 948.4 -1.2 24
2019-07-30 17:00:00 27.4 24 Nordeste 36 Nordeste 0 948.5 -1.6 25
2019-07-30 16:00:00 27.9 16 Nordeste 27 Este 0 949 -1.6 27
2019-07-30 15:00:00 27.7 4 Sur 18 Nordeste 0 949.6 -1.3 28
2019-07-30 14:00:00 25.9 5 Este 15 Este 0 950.1 -0.9 32
2019-07-30 13:00:00 24.3 5 Sudeste 16 Nordeste 0 950.6 -0.4 37
2019-07-30 12:00:00 22.3 4 Este 15 Sudoeste 0 950.9 0.2 45
2019-07-30 11:00:00 20.4 4 Oeste 12 Noroeste 0 951 1 53
2019-07-30 10:00:00 18.7 6 Oeste 10 Nordeste 0 951 1.6 60
2019-07-30 09:00:00 17.2 4 Noroeste 9 Nordeste 0 950.7 1.8 68
2019-07-30 08:00:00 16.3 3 Este 6 Este 0 950 1.7 70
2019-07-30 07:00:00 16 3 Nordeste 11 Este 0 949.4 1.7 70
2019-07-30 06:00:00 16.4 5 Este 12 Norte 0 948.9 1.6 69
2019-07-30 05:00:00 17.4 10 Nordeste 20 Nordeste 0 948.3 1.5 66
2019-07-30 04:00:00 17.9 8 Nordeste 22 Este 0 947.7 1.6 63
2019-07-30 03:00:00 18.7 12 Este 19 Este 0 947.3 2.2 62
2019-07-30 02:00:00 19.9 10 Nordeste 19 Este 0 946.8 2.5 59
2019-07-30 01:00:00 22.1 15 Nordeste 22 Nordeste 0 946.1 3.4 51
2019-07-30 00:00:00 26.2 4 Oeste 12 Oeste 0 945.1 3.1 31
2019-07-29 23:00:00 27.4 8 Noroeste 22 Oeste 0 944.3 2.8 24
2019-07-29 22:00:00 29.8 8 Oeste 23 Noroeste 0 942.7 1.1 20
2019-07-29 21:00:00 32.6 12 Oeste 28 Oeste 0 942 0.1 16
2019-07-29 20:00:00 34.4 14 Oeste 28 Oeste 0 941.5 -0.7 13
2019-07-29 19:00:00 33.4 15 Oeste 27 Oeste 0 941.6 -0.9 14
2019-07-29 18:00:00 33.6 16 Oeste 29 Sudoeste 0 941.9 -1.3 15
2019-07-29 17:00:00 34.1 9 Noroeste 29 Sur 0 942.2 -1.6 15
2019-07-29 16:00:00 33.9 14 Oeste 25 Oeste 0 942.5 -2.1 16
2019-07-29 15:00:00 32.9 5 Oeste 25 Noroeste 0 943.2 -1.8 17
2019-07-29 14:00:00 30.7 6 Sudeste 13 Sudoeste 0 943.8 -1.5 18
2019-07-29 13:00:00 28.6 4 Este 11 Oeste 0 944.6 -1 24
2019-07-29 12:00:00 24.2 3 Noroeste 9 Oeste 0 945 -0.7 33
2019-07-29 11:00:00 21.3 5 Oeste 9 Oeste 0 945.3 -0.1 44
2019-07-29 10:00:00 18.8 4 Noroeste 6 Oeste 0 945.6 0.5 54
2019-07-29 09:00:00 15.4 2 Oeste 5 Sur 0 945.7 0.9 66
2019-07-29 08:00:00 14.3 3 Norte 6 Nordeste 0 945.4 0.6 68
2019-07-29 07:00:00 13.5 3 Sur 6 Sur 0 945.1 0.3 70
2019-07-29 06:00:00 14.2 0 Calma 3 Sur 0 944.8 -0.2 69
2019-07-29 05:00:00 14.7 2 Oeste 5 Oeste 0 944.8 -0.3 67
2019-07-29 04:00:00 16 2 Norte 7 Sur 0 944.8 -0.3 61
2019-07-29 03:00:00 16.8 4 Sur 9 Sur 0 945 0.2 58
2019-07-29 02:00:00 17.9 2 Sudeste 13 Sur 0 945.1 0.5 52
2019-07-29 01:00:00 19.3 8 Sur 13 Sur 0 945.1 1.4 49
2019-07-29 00:00:00 20.5 9 Nordeste 21 Nordeste 0 944.8 1.8 43
2019-07-28 23:00:00 21.6 14 Nordeste 30 Nordeste 0 944.6 2.2 41
2019-07-28 22:00:00 22.6 21 Nordeste 33 Nordeste 0 943.7 1.4 38
2019-07-28 21:00:00 25 19 Nordeste 35 Nordeste 0 943 0.2 33
2019-07-28 20:00:00 26.6 21 Nordeste 32 Nordeste 0 942.4 -0.9 29
2019-07-28 19:00:00 28.4 17 Nordeste 27 Este 0 942.3 -1.6 24
2019-07-28 18:00:00 29.3 4 Sudeste 14 Noroeste 0 942.8 -1.8 20
2019-07-28 17:00:00 28.1 8 Nordeste 21 Norte 0 943.3 -1.9 24
2019-07-28 16:00:00 26.9 7 Oeste 23 Noroeste 0 943.9 -1.7 26
2019-07-28 15:00:00 25.5 9 Norte 19 Nordeste 0 944.6 -1.8 30
2019-07-28 14:00:00 24 7 Noroeste 15 Nordeste 0 945.2 -1.6 33
2019-07-28 13:00:00 22.6 6 Oeste 16 Oeste 0 945.6 -1 37
2019-07-28 12:00:00 20.6 5 Sudoeste 14 Oeste 0 946.4 0.1 44
2019-07-28 11:00:00 19.1 4 Sudeste 13 Noroeste 0 946.8 0.7 51
2019-07-28 10:00:00 16.7 4 Oeste 8 Noroeste 0 946.6 0.6 62
2019-07-28 09:00:00 14.2 2 Oeste 7 Sudeste 0 946.3 0.8 70
2019-07-28 08:00:00 12.7 2 Oeste 10 Norte 0 946.1 0.9 75
2019-07-28 07:00:00 12.2 5 Nordeste 15 Sur 0 946 0.5 78
2019-07-28 06:00:00 12.1 11 Sur 15 Sur 0 945.5 0.1 79
2019-07-28 05:00:00 13.4 8 Sur 11 Sur 0 945.2 -0.2 73
2019-07-28 04:00:00 14.3 5 Nordeste 9 Este 0 945.5 0.2 68
2019-07-28 03:00:00 15.6 3 Nordeste 8 Nordeste 0 945.4 0.4 65
2019-07-28 02:00:00 16.5 6 Este 10 Nordeste 0 945.4 0.8 61
2019-07-28 01:00:00 16.8 6 Nordeste 13 Este 0 945.3 1.8 59
2019-07-28 00:00:00 17.7 4 Nordeste 23 Nordeste 0 945 2.5 59
2019-07-27 23:00:00 18.7 13 Nordeste 23 Nordeste 0 944.6 2.9 56
2019-07-26 12:00:00 26.2 6 Sur 25 Nordeste 0 945.8 0.2 50
2019-07-26 11:00:00 23.9 12 Este 28 Este 0 945.3 -0.4 59
2019-07-26 10:00:00 23 4 Sur 15 Sur 0 946.3 1.1 64
2019-07-26 09:00:00 22.2 4 Sur 8 Sudeste 0 945.6 0.9 66
2019-07-26 08:00:00 22.5 3 Sudeste 17 Nordeste 0 945.7 0.9 62
2019-07-26 07:00:00 22.6 13 Nordeste 21 Nordeste 0 945.2 0.5 61
2019-07-26 06:00:00 22 3 Nordeste 8 Este 0 944.7 -0.1 58
2019-07-26 05:00:00 23.5 4 Norte 9 Norte 0 944.8 -0.3 50
2019-07-26 04:00:00 23.5 3 Este 10 Este 0 944.7 -0.4 48
2019-07-26 03:00:00 23.6 6 Sudeste 10 Sudeste 0 944.8 -0.3 49
2019-07-26 02:00:00 24.3 4 Noroeste 9 Nordeste 0 945.1 0 44
2019-07-26 01:00:00 25.4 4 Este 15 Norte 0 945.1 0.3 41
2019-07-26 00:00:00 26.3 5 Nordeste 13 Nordeste 0 945.1 0.7 37
2019-07-25 23:00:00 27.5 5 Noroeste 17 Sudeste 0 945.1 1.2 34
2019-07-25 22:00:00 28.5 7 Sur 29 Sudeste 0 944.8 0.7 31
2019-07-25 21:00:00 29.6 10 Este 30 Este 0 944.4 -0.3 30
2019-07-25 20:00:00 29.9 15 Este 30 Este 0 943.9 -0.9 30
2019-07-25 19:00:00 32.8 8 Este 25 Este 0.2 944.1 -1.1 30
2019-07-25 18:00:00 31.6 13 Sur 22 Sudoeste 0 944.7 -0.6 31
2019-07-25 17:00:00 32.8 12 Sudeste 29 Sudeste 0.2 944.8 -1.1 28
2019-07-25 16:00:00 32.6 13 Sudeste 54 Sur 0 945.2 -1.5 27
2019-07-25 15:00:00 36.8 7 Noroeste 19 Oeste 0 945.3 -1.9 15
2019-07-25 14:00:00 35.2 9 Nordeste 20 Este 0 945.9 -1.8 18
2019-07-25 13:00:00 33.5 5 Oeste 13 Oeste 0 946.7 -1.4 20
2019-07-25 12:00:00 31 5 Oeste 9 Oeste 0 947.2 -0.8 22
2019-07-25 11:00:00 28.2 4 Noroeste 6 Noroeste 0 947.7 -0.1 29
2019-07-25 10:00:00 24.7 3 Norte 5 Norte 0 948.1 0.7 39
2019-07-25 09:00:00 21.5 2 Sur 4 Sudeste 0 948 1 45
2019-07-25 08:00:00 20.5 0 Calma 4 Sudoeste 0 947.8 0.7 53
2019-07-25 07:00:00 20.7 4 Sudoeste 9 Sudoeste 0 947.4 0.3 46
2019-07-25 06:00:00 21 6 Sur 9 Sur 0 947 -0.3 46
2019-07-25 05:00:00 22.8 0 Calma 5 Sudoeste 0 947.1 -0.2 43
2019-07-25 04:00:00 23.9 0 Calma 9 Oeste 0 947.1 -0.3 39
2019-07-25 03:00:00 25.9 5 Norte 12 Sur 0 947.3 0.3 32
2019-07-25 02:00:00 27.3 4 Sudeste 14 Nordeste 0 947.3 0.8 30
2019-07-25 01:00:00 29.1 9 Nordeste 20 Sur 0 947.4 1.2 26
2019-07-25 00:00:00 30.1 8 Sur 14 Sur 0 947 1.1 23
2019-07-24 23:00:00 31.5 5 Sudeste 40 Sur 0 946.5 0.5 21
2019-07-24 22:00:00 32.2 6 Sudeste 21 Este 0 946.2 0.8 19
2019-07-24 21:00:00 33.3 10 Este 22 Nordeste 0 945.9 -0.1 20
2019-07-24 20:00:00 34.3 7 Norte 29 Sudeste 0 946 -0.6 18
2019-07-24 19:00:00 35.8 8 Sudeste 26 Este 0 945.4 -1.3 13
2019-07-24 18:00:00 36.4 12 Sudeste 30 Sudeste 0 946 -1.4 14
2019-07-24 17:00:00 30.5 15 Este 76 Sur 3.8 946.6 -1.6 34
2019-07-24 16:00:00 38 16 Sur 31 Sur 0 946.7 -2.5 12
2019-07-24 15:00:00 39.3 13 Sur 28 Sudeste 0 947.4 -2.4 10
2019-07-24 14:00:00 34.6 9 Norte 18 Nordeste 0 948.2 -1.9 18
2019-07-24 13:00:00 32.1 5 Sudoeste 13 Noroeste 0 949.2 -1.4 23
2019-07-24 12:00:00 29.5 5 Noroeste 10 Noroeste 0 949.8 -0.4 28
2019-07-24 11:00:00 25.9 4 Oeste 7 Oeste 0 950.1 0.3 42
2019-07-24 10:00:00 24.2 4 Oeste 10 Oeste 0 950.6 0.9 46
2019-07-24 09:00:00 21.1 5 Este 11 Este 0 950.2 0.2 60
2019-07-24 08:00:00 20.3 4 Noroeste 13 Oeste 0 949.8 -0.2 64
2019-07-24 07:00:00 20.1 4 Sudoeste 7 Sur 0 949.7 -0.6 57
2019-07-24 06:00:00 21 4 Norte 9 Este 0 950 -0.6 54
2019-07-24 05:00:00 22.3 3 Sur 5 Nordeste 0 950 -0.6 46
2019-07-24 04:00:00 22.9 6 Nordeste 9 Sur 0 950.3 -0.3 44
2019-07-24 03:00:00 22.8 6 Sudoeste 13 Sur 0 950.6 -0.1 47
2019-07-24 02:00:00 24.7 7 Sur 12 Sur 0 950.6 1.7 40
2019-07-24 01:00:00 27.1 4 Oeste 19 Sudoeste 0 950.6 2.3 33
2019-07-24 00:00:00 28.7 12 Sudoeste 36 Sudoeste 0 950.7 2.5 29
2019-07-23 23:00:00 28.1 5 Este 15 Sur 0 948.9 1.4 28
2019-07-23 22:00:00 30 10 Sudeste 21 Sur 0 948.3 0.3 23
2019-07-23 21:00:00 31.3 5 Sudeste 36 Este 0 948.2 0.7 26
2019-07-23 20:00:00 33 25 Este 40 Este 0 947.5 -0.3 19
2019-07-23 19:00:00 34.6 12 Nordeste 32 Norte 0 948 -0.4 14
2019-07-23 18:00:00 37.4 13 Sudeste 33 Sudeste 0 947.5 -1.7 11
2019-07-23 17:00:00 38.8 9 Sudeste -- -- 0 947.8 -2.2 10
2019-07-23 16:00:00 39.4 6 Sudeste 20 Noroeste 0 948.4 -2.6 11
2019-07-23 15:00:00 38.4 11 Oeste 21 Oeste 0 949.2 -2.5 12
2019-07-23 14:00:00 36.4 9 Norte 20 Norte 0 950 -2.2 13
2019-07-23 13:00:00 33.8 6 Noroeste 13 Noroeste 0 951 -1.5 15
2019-07-23 12:00:00 30.6 3 Noroeste 8 Oeste 0 951.7 -1.1 18
2019-07-23 11:00:00 27.4 4 Noroeste 9 Noroeste 0 952.2 -0.4 24
2019-07-23 10:00:00 23.8 5 Sudoeste 8 Oeste 0 952.5 0.4 33
2019-07-23 09:00:00 20.8 3 Noroeste 6 Oeste 0 952.8 1 44
2019-07-23 08:00:00 19 6 Sur 10 Sudeste 0 952.6 0.8 44
2019-07-23 07:00:00 20.3 3 Sur 8 Sudoeste 0 952.1 0.2 42
2019-07-23 06:00:00 21.2 4 Sudoeste 9 Sudoeste 0 951.8 -0.2 40
2019-07-23 05:00:00 22.1 4 Sudoeste 9 Oeste 0 951.8 -0.3 38
2019-07-23 04:00:00 23.5 2 Noroeste 8 Oeste 0 951.9 -0.1 36
2019-07-23 03:00:00 25.1 2 Oeste 9 Sudeste 0 952 0.2 31
2019-07-23 02:00:00 27.2 6 Sur 18 Sudeste 0 952.1 0.8 25
2019-07-23 01:00:00 28.4 5 Sudeste 15 Sudeste 0 952 1.2 24
2019-07-23 00:00:00 29.9 4 Norte 14 Norte 0 951.8 1.5 21
2019-07-22 23:00:00 31.3 5 Noroeste 19 Sur 0 951.3 1.4 18
2019-07-22 22:00:00 33.4 12 Sur 37 Sudeste 0 950.8 0.6 13
2019-07-22 21:00:00 35.9 21 Sudeste 45 Sudeste 0 950.3 -0.3 10
2019-07-22 20:00:00 37.8 21 Sur 34 Sur 0 949.9 -1.1 10
2019-07-22 19:00:00 39.2 6 Sudeste 32 Sur 0 950.2 -1.5 10
2019-07-22 18:00:00 38.7 10 Sudeste 36 Sudeste 0 950.6 -1.8 10
2019-07-22 17:00:00 39.8 11 Sudeste 36 Sudeste 0 951 -1.7 9
2019-07-22 16:00:00 39.7 12 Sudeste 40 Sur 0 951.7 -2 9
2019-07-22 15:00:00 37.4 8 Este 34 Nordeste 0 952.4 -1.8 9
2019-07-22 14:00:00 35.3 19 Norte 29 Norte 0 952.7 -1.9 21
2019-07-22 13:00:00 33.6 14 Norte 23 Nordeste 0 953.7 -1.4 24
2019-07-22 12:00:00 30.4 6 Oeste 12 Oeste 0 954.2 -0.8 24
2019-07-22 11:00:00 27.3 4 Oeste 9 Oeste 0 954.6 -0.2 31
2019-07-22 10:00:00 24.1 4 Oeste 8 Oeste 0 955.1 0.6 39
2019-07-22 09:00:00 21.3 4 Sudoeste 6 Sudoeste 0 955 0.8 52
2019-07-22 08:00:00 20.2 3 Sudoeste 6 Sudeste 0 954.8 0.7 51
2019-07-22 07:00:00 20.2 2 Sudeste 10 Sudoeste 0 954.5 0.6 47
2019-07-22 06:00:00 22 4 Sudeste 7 Sur 0 954.2 0.2 45
2019-07-22 05:00:00 23.4 3 Oeste 8 Sudoeste 0 954.1 -0.1 43
2019-07-22 04:00:00 25.2 4 Sudeste 22 Nordeste 0 953.9 -0.2 33
2019-07-22 03:00:00 25.8 8 Este 18 Este 0 954 -0.1 36
2019-07-22 02:00:00 27.8 8 Este 21 Este 0 954.2 1.7 30
2019-07-22 01:00:00 27.9 12 Este 20 Este 0 954.1 2.8 31
2019-07-22 00:00:00 28.9 6 Sudoeste 9 Oeste 0 954.1 3.7 34